Time;durP1;ratioP1;P1;durP2;ratioP2;P2;SDS_P1;SDS_P2;PMS_P1;PMS_P2;Temp;Humidity;BMP_temperature;BMP_pressure;BME280_temperature;BME280_humidity;BME280_pressure;Samples;Min_cycle;Max_cycle;Signal;HPM_P1;HPM_P2
2022/02/01 00:00:16;;;;;;;2.42;0.40;;;3.60;94.60;;;;;;4994579;28;20050;-85
2022/02/01 00:02:51;;;;;;;2.75;0.38;;;3.60;94.70;;;;;;4965179;28;20113;-85
2022/02/01 00:05:29;;;;;;;3.15;0.55;;;3.60;94.60;;;;;;4946919;28;20406;-86
2022/02/01 00:08:08;;;;;;;4.80;0.40;;;3.60;94.70;;;;;;4994206;28;20137;-86
2022/02/01 00:10:49;;;;;;;3.08;0.52;;;3.60;94.70;;;;;;4963161;28;20050;-85
2022/02/01 00:13:33;;;;;;;5.35;0.38;;;3.50;94.70;;;;;;4979140;28;20617;-85
2022/02/01 00:37:59;;;;;;;4.22;0.43;;;3.50;94.80;;;;;;4978688;28;20133;-86
2022/02/01 00:40:27;;;;;;;3.80;0.40;;;3.50;95.10;;;;;;4963072;28;20046;-85
2022/02/01 00:42:54;;;;;;;4.20;0.50;;;3.50;94.80;;;;;;4979490;28;20046;-86
2022/02/01 00:45:22;;;;;;;3.85;0.45;;;3.50;94.80;;;;;;4980352;28;20052;-86
2022/02/01 00:47:49;;;;;;;7.07;0.75;;;3.50;94.80;;;;;;4980276;28;20046;-86
2022/02/01 00:50:17;;;;;;;1.58;0.32;;;3.50;94.80;;;;;;4980336;28;20064;-86
2022/02/01 00:52:46;;;;;;;8.40;0.50;;;3.60;94.80;;;;;;5023090;28;20076;-86
2022/02/01 00:55:14;;;;;;;3.42;0.50;;;3.60;94.80;;;;;;5003226;28;20056;-83
2022/02/01 00:57:41;;;;;;;3.75;0.52;;;3.60;94.80;;;;;;5019351;28;20049;-85
2022/02/01 01:00:11;;;;;;;4.03;0.40;;;3.70;94.80;;;;;;5021390;28;20073;-86
2022/02/01 01:02:39;;;;;;;0.75;0.20;;;3.70;94.80;;;;;;5018624;28;20139;-86
2022/02/01 01:05:07;;;;;;;5.40;0.40;;;3.70;94.80;;;;;;5034856;28;20043;-87
2022/02/01 01:07:36;;;;;;;5.28;0.30;;;3.70;94.70;;;;;;5018934;28;20493;-87
2022/02/01 01:10:06;;;;;;;3.17;0.30;;;3.70;94.70;;;;;;5035117;28;20053;-88
2022/02/01 01:12:40;;;;;;;3.03;0.32;;;3.70;94.70;;;;;;5035716;28;20049;-88
2022/02/01 01:15:29;;;;;;;7.47;0.52;;;3.80;94.70;;;;;;5004286;28;20044;-87
2022/02/01 01:45:07;;;;;;;4.90;0.67;;;3.80;94.60;;;;;;5011775;28;20068;-87
2022/02/01 01:53:20;;;;;;;2.95;0.25;;;3.90;94.70;;;;;;4997939;28;20049;-85
2022/02/01 01:55:50;;;;;;;4.55;0.32;;;3.90;94.70;;;;;;5008311;28;20041;-85
2022/02/01 01:58:17;;;;;;;4.07;0.35;;;3.90;94.70;;;;;;5039636;28;20441;-86
2022/02/01 02:03:16;;;;;;;4.40;1.02;;;3.90;94.60;;;;;;5039176;28;20096;-86
2022/02/01 02:05:43;;;;;;;2.83;0.32;;;3.90;94.60;;;;;;5022705;28;20045;-85
2022/02/01 02:08:12;;;;;;;5.47;0.43;;;3.90;94.60;;;;;;5023029;28;20044;-87
2022/02/01 02:10:50;;;;;;;4.68;1.17;;;3.90;94.60;;;;;;5023393;28;20055;-86
2022/02/01 02:15:59;;;;;;;5.07;0.70;;;3.90;94.90;;;;;;5056092;28;20044;-86
2022/02/01 02:18:28;;;;;;;5.38;0.80;;;3.90;94.60;;;;;;5022888;28;20074;-86
2022/02/01 02:20:57;;;;;;;1.88;0.30;;;4.00;94.60;;;;;;5039216;28;20055;-87
2022/02/01 02:23:25;;;;;;;4.75;0.45;;;4.00;94.60;;;;;;5022511;28;20045;-86
2022/02/01 02:25:54;;;;;;;5.60;0.60;;;4.00;94.60;;;;;;5022955;28;20451;-86
2022/02/01 02:28:23;;;;;;;1.57;0.20;;;4.00;94.60;;;;;;5022515;28;20080;-87
2022/02/01 02:30:52;;;;;;;4.55;0.30;;;4.00;94.60;;;;;;5005939;28;20855;-85
2022/02/01 02:33:20;;;;;;;3.83;0.35;;;4.00;94.60;;;;;;5038349;28;20413;-88
2022/02/01 02:35:57;;;;;;;1.08;0.22;;;4.00;94.60;;;;;;5006260;28;20064;-87
2022/02/01 02:38:47;;;;;;;1.98;0.32;;;4.00;94.60;;;;;;5038390;28;20056;-87
2022/02/01 02:46:33;;;;;;;3.70;0.47;;;4.10;94.60;;;;;;5038595;28;20045;-86
2022/02/01 02:49:05;;;;;;;3.13;0.20;;;4.10;94.50;;;;;;5022162;28;20061;-87
2022/02/01 02:51:32;;;;;;;3.05;0.30;;;4.10;94.50;;;;;;5038454;28;20133;-87
2022/02/01 02:54:06;;;;;;;2.13;0.22;;;4.10;94.70;;;;;;5037977;28;20469;-87
2022/02/01 02:56:34;;;;;;;2.00;0.20;;;4.10;94.50;;;;;;5020491;28;20048;-85
2022/02/01 02:59:01;;;;;;;7.78;0.40;;;4.10;94.50;;;;;;4989501;28;20037;-87
2022/02/01 03:01:30;;;;;;;4.10;0.38;;;4.10;94.40;;;;;;5004313;28;20045;-81
2022/02/01 03:03:58;;;;;;;1.00;0.38;;;4.20;94.50;;;;;;5036359;28;20049;-81
2022/02/01 03:06:25;;;;;;;4.07;0.35;;;4.20;94.50;;;;;;5020242;28;20115;-81
2022/02/01 03:08:52;;;;;;;2.75;0.52;;;4.10;94.40;;;;;;5036551;28;20131;-82
2022/02/01 03:11:19;;;;;;;4.70;0.45;;;4.10;94.70;;;;;;5020147;28;20049;-82
2022/02/01 03:13:55;;;;;;;4.00;1.02;;;4.10;94.40;;;;;;5004208;28;20045;-80
2022/02/01 03:21:36;;;;;;;5.43;0.82;;;4.10;94.40;;;;;;5054093;28;20064;-81
2022/02/01 03:24:04;;;;;;;3.85;0.45;;;4.10;94.40;;;;;;5019800;28;20047;-81
2022/02/01 03:26:31;;;;;;;4.97;0.40;;;4.10;94.30;;;;;;5004309;28;20052;-81
2022/02/01 03:28:58;;;;;;;3.58;0.65;;;4.10;94.40;;;;;;5003929;28;20126;-81
2022/02/01 03:31:25;;;;;;;10.00;1.17;;;4.10;94.40;;;;;;5004300;28;20041;-82
2022/02/01 03:33:52;;;;;;;4.70;0.70;;;4.10;94.40;;;;;;5020169;28;20063;-82
2022/02/01 03:36:19;;;;;;;2.95;0.45;;;4.10;94.40;;;;;;5004398;28;20049;-83
2022/02/01 03:38:47;;;;;;;3.80;0.40;;;4.10;94.30;;;;;;5004339;28;20056;-82
2022/02/01 03:41:14;;;;;;;4.10;0.60;;;4.10;94.30;;;;;;5004092;28;20045;-82
2022/02/01 03:43:42;;;;;;;2.53;0.60;;;4.10;94.30;;;;;;5003191;28;20405;-81
2022/02/01 03:46:09;;;;;;;7.05;0.80;;;4.20;94.30;;;;;;4982116;28;20490;-81
2022/02/01 03:48:36;;;;;;;3.80;0.32;;;4.20;94.30;;;;;;4996529;28;20856;-81
2022/02/01 03:51:04;;;;;;;4.60;0.50;;;4.20;94.30;;;;;;4980477;28;20053;-81
2022/02/01 03:53:31;;;;;;;6.78;0.40;;;4.20;94.30;;;;;;4964608;28;20050;-81
2022/02/01 03:55:58;;;;;;;2.58;0.60;;;4.20;94.30;;;;;;4980282;28;20423;-81
2022/02/01 03:58:25;;;;;;;4.47;0.50;;;4.30;94.30;;;;;;4996831;28;20049;-82
2022/02/01 04:00:52;;;;;;;2.70;0.50;;;4.30;94.30;;;;;;4980171;28;20041;-81
2022/02/01 04:03:19;;;;;;;4.47;0.60;;;4.30;94.30;;;;;;4996731;28;20133;-82
2022/02/01 04:05:46;;;;;;;3.67;0.30;;;4.30;94.30;;;;;;4980307;28;20482;-82
2022/02/01 04:08:17;;;;;;;6.28;0.63;;;4.30;94.30;;;;;;5012598;28;20402;-82
2022/02/01 04:10:47;;;;;;;4.45;0.45;;;4.30;94.30;;;;;;4996357;28;20521;-82
2022/02/01 04:13:17;;;;;;;3.07;0.27;;;4.40;94.30;;;;;;4980652;28;20064;-82
2022/02/01 04:15:45;;;;;;;6.72;0.68;;;4.40;94.30;;;;;;4980446;28;20045;-82
2022/02/01 04:18:12;;;;;;;5.78;0.52;;;4.40;94.30;;;;;;4980404;28;20099;-86
2022/02/01 04:20:40;;;;;;;2.63;0.30;;;4.40;94.30;;;;;;4996955;28;20060;-88
2022/02/01 04:23:07;;;;;;;3.15;0.20;;;4.40;94.30;;;;;;4981484;28;20520;-89
2022/02/01 04:25:34;;;;;;;4.18;0.30;;;4.40;94.30;;;;;;4997360;28;20046;-89
2022/02/01 04:28:02;;;;;;;3.58;0.50;;;4.40;94.30;;;;;;4966482;28;20045;-88
2022/02/01 04:30:29;;;;;;;3.25;0.40;;;4.40;94.30;;;;;;4981386;28;20066;-87
2022/02/01 04:32:57;;;;;;;3.13;0.55;;;4.40;94.30;;;;;;4997117;28;20064;-88
2022/02/01 04:35:29;;;;;;;7.45;0.60;;;4.40;94.30;;;;;;4981167;28;20077;-88
2022/02/01 04:37:57;;;;;;;4.95;0.90;;;4.40;94.20;;;;;;4997696;28;20132;-88
2022/02/01 04:40:27;;;;;;;6.47;0.65;;;4.40;94.20;;;;;;4964979;28;20060;-89
2022/02/01 04:42:54;;;;;;;9.80;0.77;;;4.40;94.20;;;;;;4996851;28;20116;-88
2022/02/01 04:45:23;;;;;;;5.50;1.45;;;4.40;94.20;;;;;;5012876;28;20387;-88
2022/02/01 04:47:52;;;;;;;4.97;1.10;;;4.40;94.10;;;;;;4996744;28;20042;-88
2022/02/01 04:50:26;;;;;;;10.55;0.70;;;4.40;94.10;;;;;;4997221;28;20038;-88
2022/02/01 04:52:54;;;;;;;3.65;0.82;;;4.40;94.10;;;;;;4996809;28;20049;-89
2022/02/01 04:55:23;;;;;;;4.45;0.50;;;4.30;94.10;;;;;;4981020;28;20046;-89
2022/02/01 04:57:54;;;;;;;5.38;0.68;;;4.30;94.10;;;;;;4980886;28;20065;-88
2022/02/01 05:00:30;;;;;;;4.28;0.40;;;4.30;94.10;;;;;;5013146;28;20117;-89
2022/02/01 05:03:00;;;;;;;2.95;0.45;;;4.30;94.20;;;;;;4980486;28;20100;-89
2022/02/01 05:05:29;;;;;;;5.30;0.82;;;4.30;94.20;;;;;;4980780;28;20144;-88
2022/02/01 05:07:59;;;;;;;5.85;0.80;;;4.30;94.20;;;;;;4996595;28;20137;-88
2022/02/01 05:10:28;;;;;;;3.95;0.82;;;4.30;94.10;;;;;;4996824;28;20054;-89
2022/02/01 05:13:05;;;;;;;1.88;0.40;;;4.30;94.20;;;;;;5008108;28;20062;-88
2022/02/01 05:15:32;;;;;;;4.80;0.60;;;4.30;94.20;;;;;;4996758;28;20077;-86
2022/02/01 05:17:59;;;;;;;6.05;0.57;;;4.30;94.20;;;;;;4980416;28;20049;-89
2022/02/01 05:20:45;;;;;;;2.33;0.50;;;4.30;94.20;;;;;;4986669;28;20056;-89
2022/02/01 05:23:12;;;;;;;5.90;0.90;;;4.20;94.20;;;;;;4992849;28;20140;-89
2022/02/01 05:25:41;;;;;;;4.70;1.05;;;4.20;94.30;;;;;;4987856;28;20034;-87
2022/02/01 05:28:08;;;;;;;4.30;0.65;;;4.20;94.30;;;;;;5003939;28;20049;-87
2022/02/01 05:30:35;;;;;;;7.13;1.05;;;4.20;94.30;;;;;;5005098;28;20100;-88
2022/02/01 05:33:04;;;;;;;7.68;1.27;;;4.20;94.30;;;;;;5004665;28;20053;-88
2022/02/01 05:35:31;;;;;;;5.75;0.88;;;4.20;94.30;;;;;;4989119;28;20060;-89
2022/02/01 05:37:58;;;;;;;6.10;1.10;;;4.20;94.30;;;;;;4989898;28;20045;-89
2022/02/01 05:40:26;;;;;;;9.20;1.23;;;4.10;94.30;;;;;;5022363;28;20045;-89
2022/02/01 05:45:28;;;;;;;6.95;0.90;;;4.10;94.40;;;;;;5019989;28;20531;-88
2022/02/01 05:47:55;;;;;;;7.00;1.27;;;4.10;94.40;;;;;;5003639;28;20065;-81
2022/02/01 05:50:23;;;;;;;8.25;0.90;;;4.10;94.40;;;;;;5019038;28;20397;-81
2022/02/01 05:52:50;;;;;;;3.85;0.90;;;4.20;94.40;;;;;;4986312;28;20149;-81
2022/02/01 05:55:17;;;;;;;5.20;1.20;;;4.20;94.40;;;;;;4985635;28;20056;-81
2022/02/01 05:57:46;;;;;;;6.53;1.17;;;4.20;94.40;;;;;;5036559;28;20046;-81
2022/02/01 06:00:17;;;;;;;5.18;1.05;;;4.30;94.40;;;;;;5002594;28;20478;-82
2022/02/01 06:02:47;;;;;;;8.15;1.48;;;4.30;94.30;;;;;;4986718;28;20095;-83
2022/02/01 06:05:17;;;;;;;7.70;1.45;;;4.40;94.30;;;;;;5002471;28;20048;-82
2022/02/01 06:07:46;;;;;;;8.15;1.50;;;4.40;94.30;;;;;;4986577;28;20045;-88
2022/02/01 06:10:14;;;;;;;6.25;1.30;;;4.50;94.30;;;;;;4987626;28;20561;-89
2022/02/01 06:12:46;;;;;;;3.90;0.75;;;4.50;94.30;;;;;;5002059;28;20053;-81
2022/02/01 06:15:17;;;;;;;4.75;1.15;;;4.50;94.30;;;;;;4986479;28;20053;-80
2022/02/01 06:17:45;;;;;;;7.20;1.00;;;4.60;94.30;;;;;;4986104;28;20037;-81
2022/02/01 06:20:13;;;;;;;6.65;1.20;;;4.60;94.20;;;;;;5001271;28;20051;-81
2022/02/01 06:22:41;;;;;;;7.30;1.30;;;4.60;94.20;;;;;;4985457;28;20456;-80
2022/02/01 06:25:10;;;;;;;9.18;1.13;;;4.60;94.20;;;;;;5002131;28;20041;-81
2022/02/01 06:27:37;;;;;;;7.38;1.23;;;4.60;94.20;;;;;;5001777;28;20118;-81
2022/02/01 06:30:07;;;;;;;7.63;1.13;;;4.60;94.20;;;;;;5017580;28;20038;-82
2022/02/01 06:32:37;;;;;;;9.07;1.20;;;4.60;94.10;;;;;;5017949;28;20053;-82
2022/02/01 06:35:06;;;;;;;6.93;1.25;;;4.60;94.10;;;;;;5001401;28;20045;-81
2022/02/01 06:37:34;;;;;;;6.57;0.95;;;4.70;94.20;;;;;;5018014;28;20042;-88
2022/02/01 06:40:02;;;;;;;4.80;1.30;;;4.70;94.20;;;;;;5018564;28;20069;-89
2022/02/01 06:42:29;;;;;;;7.78;1.05;;;4.70;94.10;;;;;;4986755;28;20045;-89
2022/02/01 06:44:59;;;;;;;6.55;1.42;;;4.70;94.10;;;;;;5002396;28;20072;-89
2022/02/01 06:47:29;;;;;;;7.80;1.10;;;4.70;94.20;;;;;;5019190;28;20120;-89
2022/02/01 06:49:56;;;;;;;7.40;1.15;;;4.70;94.20;;;;;;4986538;28;20095;-89
2022/02/01 06:52:24;;;;;;;5.30;1.05;;;4.70;94.20;;;;;;5002584;28;20041;-90
2022/02/01 06:54:51;;;;;;;6.78;1.45;;;4.70;94.20;;;;;;4986361;28;20148;-89
2022/02/01 06:57:18;;;;;;;8.73;1.33;;;4.80;94.20;;;;;;4983939;28;20050;-89
2022/02/01 06:59:45;;;;;;;6.75;1.40;;;4.80;94.20;;;;;;4982193;28;20056;-83
2022/02/01 07:02:12;;;;;;;6.82;1.45;;;4.80;94.20;;;;;;4981329;28;20050;-84
2022/02/01 07:04:40;;;;;;;6.70;2.13;;;4.80;94.20;;;;;;4981740;28;20034;-82
2022/02/01 07:07:07;;;;;;;10.18;2.25;;;4.90;94.20;;;;;;4981461;28;20513;-82
2022/02/01 07:09:36;;;;;;;9.77;2.22;;;4.90;94.20;;;;;;4997481;28;20491;-82
2022/02/01 07:12:03;;;;;;;11.20;2.42;;;4.90;94.30;;;;;;5015606;28;20065;-82
2022/02/01 07:14:30;;;;;;;14.02;3.38;;;4.80;94.30;;;;;;4997437;28;20148;-82
2022/02/01 07:16:58;;;;;;;14.15;3.53;;;4.80;94.40;;;;;;4999976;28;20049;-88
2022/02/01 07:19:25;;;;;;;9.82;3.13;;;4.80;94.50;;;;;;4999061;28;20056;-89
2022/02/01 07:21:53;;;;;;;12.82;3.70;;;4.80;94.50;;;;;;4998932;28;20049;-89
2022/02/01 07:24:27;;;;;;;8.63;2.42;;;4.80;94.60;;;;;;4999505;28;20045;-90
2022/02/01 07:27:09;;;;;;;7.03;2.55;;;4.80;94.60;;;;;;4999762;28;20132;-88
2022/02/01 07:29:36;;;;;;;8.02;2.60;;;4.90;94.70;;;;;;4998224;28;20046;-82
2022/02/01 07:32:04;;;;;;;7.10;3.28;;;4.80;94.70;;;;;;4982997;28;20050;-86
2022/02/01 07:34:33;;;;;;;10.30;3.30;;;4.90;94.70;;;;;;4997824;28;20380;-82
2022/02/01 07:37:03;;;;;;;10.50;4.45;;;4.90;94.80;;;;;;4981962;28;20410;-80
2022/02/01 07:39:30;;;;;;;11.18;3.90;;;4.90;94.90;;;;;;4965448;28;20437;-91
2022/02/01 07:41:57;;;;;;;12.50;3.38;;;4.90;94.90;;;;;;4997767;28;20050;-91
2022/02/01 07:44:37;;;;;;;;;;;;;;;;;;;;;
2022/02/01 07:47:26;;;;;;;9.82;4.40;;;4.90;95.00;;;;;;4994947;28;20066;-89
2022/02/01 07:49:56;;;;;;;9.82;4.07;;;4.90;95.00;;;;;;4994738;28;20050;-81
2022/02/01 07:52:24;;;;;;;8.48;4.00;;;4.90;95.00;;;;;;4993615;28;20058;-87
2022/02/01 07:54:51;;;;;;;9.68;4.57;;;4.90;95.00;;;;;;4994218;28;20056;-85
2022/02/01 07:57:21;;;;;;;10.18;5.60;;;4.90;95.00;;;;;;4973933;28;20565;-84
2022/02/01 07:59:53;;;;;;;13.10;5.82;;;4.90;95.10;;;;;;5003080;28;20071;-84
2022/02/01 08:02:25;;;;;;;12.50;6.13;;;4.90;95.10;;;;;;4991198;28;20133;-84
2022/02/01 08:05:12;;;;;;;14.25;7.38;;;4.90;95.20;;;;;;4979925;28;20043;-83
2022/02/01 08:07:39;;;;;;;13.68;6.32;;;4.90;95.20;;;;;;4977178;28;20557;-83
2022/02/01 08:10:11;;;;;;;16.85;7.18;;;4.90;95.30;;;;;;4993411;28;20053;-83
2022/02/01 08:20:52;;;;;;;14.30;7.80;;;4.90;95.50;;;;;;4976472;28;20047;-78
2022/02/01 08:23:19;;;;;;;15.85;8.18;;;4.90;95.50;;;;;;4978439;28;20074;-81
2022/02/01 08:25:48;;;;;;;17.20;9.50;;;5.00;95.60;;;;;;4976329;28;20520;-82
2022/02/01 08:28:16;;;;;;;16.15;9.48;;;5.00;95.60;;;;;;4993828;28;20057;-79
2022/02/01 08:30:43;;;;;;;16.10;9.23;;;5.00;95.60;;;;;;4992431;28;20070;-80
2022/02/01 08:33:10;;;;;;;18.67;9.38;;;5.00;95.60;;;;;;4976613;28;20817;-80
2022/02/01 08:35:37;;;;;;;19.67;10.88;;;5.00;95.70;;;;;;4960256;28;20050;-80
2022/02/01 08:38:17;;;;;;;22.85;13.20;;;5.10;95.70;;;;;;4963794;28;20058;-79
2022/02/01 08:40:51;;;;;;;20.50;11.30;;;5.10;95.80;;;;;;4992232;28;20058;-81
2022/02/01 08:43:21;;;;;;;21.80;12.85;;;5.10;95.90;;;;;;5003854;28;20556;-81
2022/02/01 08:45:51;;;;;;;24.10;13.23;;;5.10;95.90;;;;;;4979123;28;20065;-82
2022/02/01 08:48:19;;;;;;;23.25;12.85;;;5.10;95.90;;;;;;4995738;28;20046;-80
2022/02/01 08:50:46;;;;;;;22.70;13.30;;;5.20;96.00;;;;;;5011875;28;20042;-79
2022/02/01 08:53:19;;;;;;;19.77;12.82;;;5.20;96.00;;;;;;4979385;28;20050;-85
2022/02/01 08:56:06;;;;;;;;;;;5.20;96.00;;;;;;4996439;28;20038;-83
2022/02/01 08:58:33;;;;;;;20.23;12.32;;;5.20;96.00;;;;;;4995882;28;19921;-83
2022/02/01 09:01:01;;;;;;;20.60;12.38;;;5.20;96.00;;;;;;4996857;28;20041;-92
2022/02/01 09:03:30;;;;;;;23.50;11.73;;;5.20;96.00;;;;;;4996956;28;20092;-89
2022/02/01 09:05:57;;;;;;;24.10;13.75;;;5.30;96.10;;;;;;5012954;28;20430;-92
2022/02/01 09:08:25;;;;;;;28.60;14.80;;;5.30;96.10;;;;;;5013259;28;20041;-91
2022/02/01 09:10:52;;;;;;;23.90;13.77;;;5.30;96.20;;;;;;4997272;28;20065;-90
2022/02/01 09:13:20;;;;;;;23.30;14.50;;;5.30;96.20;;;;;;4980796;28;20050;-88
2022/02/01 09:15:47;;;;;;;23.48;13.65;;;5.40;96.20;;;;;;4980494;28;20039;-88
2022/02/01 09:18:17;;;;;;;22.45;13.90;;;5.40;96.30;;;;;;5013530;28;20046;-86
2022/02/01 09:20:45;;;;;;;24.25;13.30;;;5.40;96.30;;;;;;4999359;28;20075;-86
2022/02/01 09:23:12;;;;;;;21.20;13.20;;;5.40;96.40;;;;;;4998478;28;20038;-83
2022/02/01 09:25:42;;;;;;;24.92;13.05;;;5.50;96.40;;;;;;4996183;28;20068;-84
2022/02/01 09:28:12;;;;;;;21.63;13.13;;;5.50;96.40;;;;;;4996476;28;20077;-86
2022/02/01 09:30:39;;;;;;;20.23;11.80;;;5.50;96.50;;;;;;4995621;28;20084;-85
2022/02/01 09:33:07;;;;;;;20.58;12.05;;;5.50;96.50;;;;;;4995528;28;20406;-80
2022/02/01 09:35:36;;;;;;;18.58;10.75;;;5.60;96.50;;;;;;4995580;28;20050;-83
2022/02/01 09:38:03;;;;;;;21.02;12.65;;;5.60;96.50;;;;;;5011782;28;20443;-81
2022/02/01 09:40:45;;;;;;;22.30;14.02;;;5.60;96.50;;;;;;4982785;28;20060;-82
2022/02/01 09:43:14;;;;;;;22.63;13.63;;;5.60;96.60;;;;;;5011429;28;20052;-81
2022/02/01 09:45:44;;;;;;;18.70;12.20;;;5.60;96.60;;;;;;4979650;28;20421;-91
2022/02/01 09:48:32;;;;;;;19.70;11.70;;;5.60;96.60;;;;;;4969738;28;20038;-84
2022/02/01 09:51:04;;;;;;;19.38;11.85;;;5.70;96.60;;;;;;5011583;28;20540;-84
2022/02/01 09:53:31;;;;;;;19.35;10.77;;;5.70;96.60;;;;;;4995598;28;20053;-87
2022/02/01 09:55:58;;;;;;;18.88;11.85;;;5.70;96.60;;;;;;5011469;28;20567;-83
2022/02/01 09:58:37;;;;;;;16.33;10.75;;;5.70;96.60;;;;;;4995005;28;20053;-84
2022/02/01 10:01:27;;;;;;;17.10;10.77;;;5.80;96.60;;;;;;4994376;28;20422;-82
2022/02/01 10:04:03;;;;;;;16.60;9.57;;;5.80;96.60;;;;;;5011072;28;20042;-82
2022/02/01 10:06:41;;;;;;;18.70;10.55;;;5.80;96.80;;;;;;4997603;28;20046;-82
2022/02/01 10:09:30;;;;;;;14.73;9.15;;;5.80;96.70;;;;;;5001443;28;20069;-82
2022/02/01 10:11:57;;;;;;;15.48;9.35;;;5.80;96.70;;;;;;4982628;28;20049;-82
2022/02/01 10:14:28;;;;;;;14.60;9.23;;;5.90;96.70;;;;;;4998699;28;20042;-79
2022/02/01 10:16:59;;;;;;;13.30;8.05;;;5.90;96.70;;;;;;5014738;28;20045;-81
2022/02/01 10:19:26;;;;;;;13.25;8.10;;;5.90;96.80;;;;;;4981608;28;20502;-80
2022/02/01 10:21:59;;;;;;;12.93;7.10;;;6.00;96.80;;;;;;4998778;28;20049;-79
2022/02/01 10:24:39;;;;;;;13.93;8.10;;;6.00;96.80;;;;;;4998078;28;20049;-83
2022/02/01 10:27:18;;;;;;;13.73;7.45;;;6.00;96.80;;;;;;4982145;28;20460;-80
2022/02/01 10:30:04;;;;;;;12.55;7.47;;;6.10;96.90;;;;;;5014534;28;20049;-79
2022/02/01 10:35:25;;;;;;;12.55;7.07;;;6.10;96.90;;;;;;5014118;28;20099;-82
2022/02/01 10:38:09;;;;;;;10.32;6.30;;;6.10;96.90;;;;;;4997790;28;20053;-85
2022/02/01 10:40:46;;;;;;;9.32;5.60;;;6.20;97.00;;;;;;5015292;28;20486;-84
2022/02/01 10:43:34;;;;;;;11.80;6.38;;;6.20;97.00;;;;;;5014325;28;20491;-82
2022/02/01 10:46:03;;;;;;;11.30;6.22;;;6.20;96.90;;;;;;4997929;28;20058;-83
2022/02/01 10:48:33;;;;;;;11.25;7.00;;;6.30;97.00;;;;;;4981971;28;20073;-83
2022/02/01 10:51:12;;;;;;;11.50;6.90;;;6.30;97.00;;;;;;4997774;28;20053;-86
2022/02/01 10:53:41;;;;;;;10.45;6.05;;;6.30;97.00;;;;;;4981929;28;20052;-86
2022/02/01 10:56:12;;;;;;;12.88;6.68;;;6.40;97.00;;;;;;4997770;28;20058;-85
2022/02/01 10:58:52;;;;;;;11.70;5.90;;;6.40;97.10;;;;;;4983000;28;20038;-83
2022/02/01 11:01:39;;;;;;;13.57;7.25;;;6.40;97.10;;;;;;4997587;28;20111;-83
2022/02/01 11:04:09;;;;;;;12.80;7.20;;;6.50;97.10;;;;;;4981073;28;20042;-78
2022/02/01 11:06:36;;;;;;;12.80;6.82;;;6.50;97.20;;;;;;4986439;28;20042;-79
2022/02/01 11:09:03;;;;;;;13.25;7.13;;;6.60;97.10;;;;;;4975813;28;20453;-79
2022/02/01 11:11:30;;;;;;;9.80;6.47;;;6.60;97.10;;;;;;4960158;28;20042;-80
2022/02/01 11:13:57;;;;;;;10.70;6.80;;;6.60;97.10;;;;;;4987307;28;20046;-78
2022/02/01 11:16:27;;;;;;;11.52;6.38;;;6.70;97.10;;;;;;4981044;28;20042;-78
2022/02/01 11:18:56;;;;;;;9.60;5.95;;;6.70;97.10;;;;;;4975153;28;20097;-78
2022/02/01 11:21:24;;;;;;;9.00;5.93;;;6.70;97.20;;;;;;4979045;28;20049;-78
2022/02/01 11:26:36;;;;;;;9.63;5.60;;;6.80;97.20;;;;;;4997600;28;20046;-80
2022/02/01 11:31:48;;;;;;;10.07;5.88;;;6.90;97.20;;;;;;4996416;28;20088;-82
2022/02/01 11:34:27;;;;;;;8.32;5.22;;;6.90;97.20;;;;;;4988581;28;20401;-83
2022/02/01 11:36:57;;;;;;;7.53;4.43;;;6.90;97.20;;;;;;4973761;28;20050;-84
2022/02/01 11:39:24;;;;;;;7.68;4.53;;;7.00;97.20;;;;;;4985428;28;20053;-83
2022/02/01 11:41:53;;;;;;;8.50;5.00;;;7.00;97.20;;;;;;4979737;28;20065;-81
2022/02/01 11:44:20;;;;;;;8.48;4.45;;;7.00;97.20;;;;;;4977144;28;20056;-83
2022/02/01 11:47:07;;;;;;;6.68;3.55;;;7.10;97.20;;;;;;4975253;28;20129;-81
2022/02/01 11:49:36;;;;;;;5.70;3.40;;;7.20;97.20;;;;;;4965925;28;21019;-81
2022/02/01 11:52:15;;;;;;;6.10;3.88;;;7.20;97.20;;;;;;4988241;28;20038;-82
2022/02/01 11:54:47;;;;;;;7.00;4.00;;;7.30;97.20;;;;;;4988208;28;20057;-81
2022/02/01 11:57:31;;;;;;;5.35;3.60;;;7.30;97.20;;;;;;4966245;28;20054;-82
2022/02/01 11:59:59;;;;;;;5.32;3.20;;;7.40;97.20;;;;;;4979717;28;20533;-81
2022/02/01 12:02:40;;;;;;;5.50;3.25;;;7.40;97.20;;;;;;4968707;28;20046;-84
2022/02/01 12:05:28;;;;;;;5.05;3.05;;;7.50;97.20;;;;;;4990780;28;20499;-82
2022/02/01 12:08:14;;;;;;;4.95;3.00;;;7.50;97.10;;;;;;4976699;28;20046;-81
2022/02/01 12:10:42;;;;;;;4.70;3.08;;;7.50;97.20;;;;;;4977695;28;20042;-82
2022/02/01 12:13:12;;;;;;;6.30;3.70;;;7.50;97.20;;;;;;4982048;28;20045;-80
2022/02/01 12:15:41;;;;;;;4.57;3.28;;;7.60;97.20;;;;;;4980016;28;20068;-78
2022/02/01 12:18:55;;;;;;;5.85;3.35;;;7.60;97.20;;;;;;4996338;28;20082;-78
2022/02/01 12:21:25;;;;;;;5.43;2.80;;;7.60;97.20;;;;;;4919622;29;20191;-87
2022/02/01 12:23:53;;;;;;;6.65;3.50;;;7.70;97.20;;;;;;4968218;28;20085;-88
2022/02/01 12:26:33;;;;;;;7.63;3.92;;;7.70;97.20;;;;;;4970306;28;20498;-86
2022/02/01 12:29:03;;;;;;;5.47;3.13;;;7.70;97.20;;;;;;4990013;28;20088;-86
2022/02/01 12:31:33;;;;;;;7.70;4.40;;;7.80;97.20;;;;;;4991610;28;20046;-85
2022/02/01 12:34:03;;;;;;;6.75;3.70;;;7.80;97.20;;;;;;4972798;28;20044;-86
2022/02/01 12:36:38;;;;;;;7.40;3.70;;;7.90;97.30;;;;;;4978137;28;20054;-85
2022/02/01 12:39:15;;;;;;;9.32;4.22;;;7.90;97.20;;;;;;4969535;28;20050;-86
2022/02/01 12:41:59;;;;;;;7.75;4.40;;;8.00;97.20;;;;;;4988303;28;20060;-85
2022/02/01 12:47:03;;;;;;;8.70;4.80;;;8.10;97.20;;;;;;4988606;28;20092;-83
2022/02/01 12:49:43;;;;;;;14.15;4.60;;;8.10;97.20;;;;;;4961336;28;20078;-85
2022/02/01 12:52:18;;;;;;;9.65;4.15;;;8.20;97.20;;;;;;4961179;28;20058;-87
2022/02/01 12:55:15;;;;;;;10.13;4.75;;;8.20;97.20;;;;;;4961719;28;20050;-85
2022/02/01 12:58:04;;;;;;;;;;;8.30;97.10;;;;;;4977638;28;20069;-86
2022/02/01 13:00:32;;;;;;;9.57;3.90;;;8.30;97.10;;;;;;4977453;28;19972;-83
2022/02/01 13:03:06;;;;;;;12.15;3.90;;;8.30;97.10;;;;;;4977255;28;20557;-88
2022/02/01 13:05:35;;;;;;;8.52;4.18;;;8.30;97.10;;;;;;4961530;28;20434;-87
2022/02/01 13:08:35;;;;;;;10.25;4.13;;;8.30;97.10;;;;;;4960767;28;20042;-86
2022/02/01 13:16:37;;;;;;;10.85;3.67;;;8.40;97.10;;;;;;4979628;28;20052;-86
2022/02/01 13:22:13;;;;;;;8.57;3.33;;;8.40;97.10;;;;;;5014640;28;20045;-87
2022/02/01 13:24:40;;;;;;;9.73;3.78;;;8.50;97.10;;;;;;5013516;28;20046;-85
2022/02/01 13:27:19;;;;;;;10.07;3.78;;;8.50;97.10;;;;;;4964244;28;20169;-89
2022/02/01 13:29:57;;;;;;;8.57;3.33;;;8.50;97.10;;;;;;4996421;28;20050;-84
2022/02/01 13:32:38;;;;;;;10.25;3.53;;;8.50;97.10;;;;;;4996441;28;20378;-86
2022/02/01 13:35:11;;;;;;;8.25;3.05;;;8.60;97.10;;;;;;4981123;28;20046;-87
2022/02/01 13:37:47;;;;;;;8.60;3.35;;;8.60;97.10;;;;;;4981031;28;20064;-86
2022/02/01 13:40:30;;;;;;;11.73;3.70;;;8.60;97.10;;;;;;4965760;28;20140;-86
2022/02/01 13:42:57;;;;;;;8.17;3.70;;;8.60;97.10;;;;;;5000553;28;20057;-88
2022/02/01 13:45:34;;;;;;;7.70;2.95;;;8.60;97.10;;;;;;4967413;28;20060;-87
2022/02/01 13:48:02;;;;;;;11.90;3.13;;;8.60;97.10;;;;;;4999934;28;20132;-89
2022/02/01 13:50:34;;;;;;;18.80;4.88;;;8.60;97.10;;;;;;4967423;28;20076;-87
2022/02/01 13:53:04;;;;;;;7.32;3.15;;;8.60;97.20;;;;;;4984370;28;20100;-85
2022/02/01 13:55:39;;;;;;;7.75;3.33;;;8.60;97.20;;;;;;4983526;28;20042;-86
2022/02/01 13:58:16;;;;;;;9.68;3.67;;;8.70;97.20;;;;;;4987403;28;20072;-86
2022/02/01 14:00:55;;;;;;;10.43;3.13;;;8.70;97.20;;;;;;5003130;28;20064;-90
2022/02/01 14:06:04;;;;;;;8.45;2.80;;;8.70;97.20;;;;;;5019936;28;20045;-86
2022/02/01 14:08:46;;;;;;;9.48;3.60;;;8.70;97.20;;;;;;5020004;28;20042;-87
2022/02/01 14:16:31;;;;;;;7.40;1.70;;;8.70;97.20;;;;;;5004107;28;20485;-89
2022/02/01 14:34:55;;;;;;;8.02;3.20;;;8.70;97.20;;;;;;4968699;28;20049;-89
2022/02/01 14:45:20;;;;;;;7.85;2.38;;;8.70;97.20;;;;;;5000311;28;20046;-89
2022/02/01 14:47:47;;;;;;;6.88;2.10;;;8.70;97.20;;;;;;4984029;28;20046;-86
2022/02/01 14:50:17;;;;;;;6.70;2.70;;;8.70;97.30;;;;;;4966759;28;20038;-87
2022/02/01 14:52:44;;;;;;;8.52;2.58;;;8.70;97.30;;;;;;4982378;28;20813;-87
2022/02/01 14:55:21;;;;;;;10.20;2.78;;;8.70;97.30;;;;;;4981724;28;20128;-80
2022/02/01 15:03:53;;;;;;;7.32;1.80;;;8.70;97.30;;;;;;4985303;28;20513;-89
2022/02/01 15:07:06;;;;;;;11.85;2.30;;;8.60;97.20;;;;;;4983570;28;20110;-89
2022/02/01 15:12:40;;;;;;;5.85;1.38;;;8.60;97.20;;;;;;4996819;28;20076;-86
2022/02/01 15:15:16;;;;;;;9.48;2.60;;;8.60;97.20;;;;;;4982084;28;20057;-90
2022/02/01 15:17:46;;;;;;;9.18;2.22;;;8.60;97.20;;;;;;4951388;28;20045;-87
2022/02/01 15:20:13;;;;;;;6.38;1.90;;;8.60;97.20;;;;;;4981505;28;20104;-79
2022/02/01 15:22:41;;;;;;;6.75;1.52;;;8.60;97.20;;;;;;4964602;28;20172;-88
2022/02/01 15:25:13;;;;;;;9.40;2.05;;;8.60;97.20;;;;;;4963090;28;20042;-89
2022/02/01 15:27:40;;;;;;;6.80;1.95;;;8.60;97.20;;;;;;4994901;28;20046;-91
2022/02/01 15:30:08;;;;;;;9.38;1.73;;;8.60;97.10;;;;;;4966368;28;20136;-87
2022/02/01 15:32:41;;;;;;;4.38;1.15;;;8.60;97.10;;;;;;4982798;28;20236;-86
2022/02/01 15:35:14;;;;;;;4.75;1.20;;;8.70;97.10;;;;;;4950017;28;20048;-82
2022/02/01 15:37:49;;;;;;;9.35;1.55;;;8.60;97.10;;;;;;4998096;28;20084;-79